createdAt,value
2022-10-16T00:00:21.840Z,101164.54
2022-10-16T00:01:44.738Z,101167.02
2022-10-16T00:03:51.417Z,101165.79
2022-10-16T00:04:55.806Z,101165.20
2022-10-16T00:06:00.941Z,101161.37
2022-10-16T00:07:03.843Z,101156.77
2022-10-16T00:08:06.928Z,101156.70
2022-10-16T00:09:09.887Z,101157.11
2022-10-16T00:10:12.771Z,101154.67
2022-10-16T00:11:25.230Z,101155.66
2022-10-16T00:12:28.325Z,101152.76
2022-10-16T00:13:32.103Z,101152.36
2022-10-16T00:14:35.064Z,101150.64
2022-10-16T00:15:38.292Z,101154.09
2022-10-16T00:16:41.903Z,101156.58
2022-10-16T00:17:44.774Z,101157.55
2022-10-16T00:18:47.896Z,101156.65
2022-10-16T00:19:50.996Z,101158.92
2022-10-16T00:21:57.021Z,101162.45
2022-10-16T00:22:59.927Z,101163.80
2022-10-16T00:24:07.266Z,101161.06
2022-10-16T00:25:10.421Z,101162.71
2022-10-16T00:26:18.965Z,101158.96
2022-10-16T00:27:21.902Z,101156.27
2022-10-16T00:28:25.065Z,101152.78
2022-10-16T00:29:28.009Z,101152.23
2022-10-16T00:30:31.174Z,101152.64
2022-10-16T00:31:34.161Z,101152.86
2022-10-16T00:32:37.052Z,101145.61
2022-10-16T00:33:40.594Z,101145.40
2022-10-16T00:34:43.658Z,101145.27
2022-10-16T00:35:46.634Z,101144.81
2022-10-16T00:36:49.602Z,101147.80
2022-10-16T00:37:52.493Z,101151.61
2022-10-16T00:38:56.431Z,101151.05
2022-10-16T00:39:59.517Z,101154.16
2022-10-16T00:41:02.558Z,101159.40
2022-10-16T00:42:06.084Z,101160.40
2022-10-16T00:43:27.506Z,101164.24
2022-10-16T00:44:44.414Z,101164.95
2022-10-16T00:45:47.469Z,101163.48
2022-10-16T00:46:51.321Z,101169.73
2022-10-16T00:47:56.548Z,101169.66
2022-10-16T00:49:04.427Z,101171.55
2022-10-16T00:50:14.458Z,101176.16
2022-10-16T00:51:20.603Z,101176.86
2022-10-16T00:52:23.792Z,101176.04
2022-10-16T00:53:28.176Z,101175.15
2022-10-16T00:54:32.470Z,101172.97
2022-10-16T00:55:38.796Z,101174.13
2022-10-16T00:56:45.846Z,101174.45
2022-10-16T00:57:49.437Z,101174.79
2022-10-16T00:58:52.522Z,101173.45
2022-10-16T00:59:55.742Z,101172.46
2022-10-16T01:00:58.599Z,101173.05
2022-10-16T01:02:02.029Z,101174.30
2022-10-16T01:03:23.377Z,101173.01
2022-10-16T01:04:27.251Z,101168.89
2022-10-16T01:05:37.363Z,101166.16
2022-10-16T01:06:45.831Z,101166.36
2022-10-16T01:08:02.190Z,101168.70
2022-10-16T01:09:22.340Z,101166.98
2022-10-16T01:10:35.835Z,101168.63
2022-10-16T01:11:43.579Z,101166.84
2022-10-16T01:13:00.797Z,101165.47
2022-10-16T01:14:11.144Z,101160.87
2022-10-16T01:15:20.548Z,101158.27
2022-10-16T01:16:23.745Z,101156.39
2022-10-16T01:17:34.000Z,101153.40
2022-10-16T01:18:55.400Z,101161.36
2022-10-16T01:20:04.571Z,101158.34
2022-10-16T01:21:10.594Z,101158.23
2022-10-16T01:22:14.243Z,101158.05
2022-10-16T01:23:20.114Z,101158.97
2022-10-16T01:24:31.919Z,101159.11
2022-10-16T01:25:34.893Z,101161.71
2022-10-16T01:26:56.094Z,101158.23
2022-10-16T01:28:00.628Z,101166.38
2022-10-16T01:29:12.923Z,101165.23
2022-10-16T01:30:22.227Z,101165.92
2022-10-16T01:31:26.952Z,101164.09
2022-10-16T01:32:34.531Z,101162.48
2022-10-16T01:33:41.997Z,101165.70
2022-10-16T01:34:54.305Z,101166.83
2022-10-16T01:36:00.299Z,101166.79
2022-10-16T01:37:13.060Z,101169.27
2022-10-16T01:38:16.241Z,101170.39
2022-10-16T01:39:21.766Z,101171.39
2022-10-16T01:40:27.406Z,101169.27
2022-10-16T01:41:36.217Z,101172.71
2022-10-16T01:42:42.952Z,101172.98
2022-10-16T01:43:51.327Z,101174.95
2022-10-16T01:44:55.972Z,101174.24
2022-10-16T01:46:00.311Z,101177.07
2022-10-16T01:47:04.070Z,101183.08
2022-10-16T01:48:09.133Z,101177.77
2022-10-16T01:49:14.433Z,101179.55
2022-10-16T01:50:19.407Z,101185.25
2022-10-16T01:51:23.082Z,101183.07
2022-10-16T01:52:28.584Z,101182.87
2022-10-16T01:53:32.418Z,101183.96
2022-10-16T01:54:36.700Z,101183.88
2022-10-16T01:55:44.800Z,101187.31
2022-10-16T01:56:49.772Z,101182.45
2022-10-16T01:57:53.941Z,101186.51
2022-10-16T01:58:59.910Z,101179.85
2022-10-16T02:00:05.428Z,101184.18
2022-10-16T02:02:28.137Z,101182.96
2022-10-16T02:03:32.001Z,101176.82
2022-10-16T02:04:40.506Z,101181.86
2022-10-16T02:05:54.494Z,101182.51
2022-10-16T02:06:57.491Z,101183.09
2022-10-16T02:08:03.197Z,101182.76
2022-10-16T02:09:08.479Z,101175.72
2022-10-16T02:10:11.387Z,101174.88
2022-10-16T02:11:14.282Z,101172.31
2022-10-16T02:12:24.197Z,101175.87
2022-10-16T02:13:31.086Z,101171.80
2022-10-16T02:14:34.019Z,101169.09
2022-10-16T02:15:37.060Z,101169.41
2022-10-16T02:16:41.512Z,101174.23
2022-10-16T02:17:48.195Z,101173.33
2022-10-16T02:18:51.127Z,101170.07
2022-10-16T02:19:55.858Z,101166.11
2022-10-16T02:21:20.126Z,101169.96
2022-10-16T02:22:27.539Z,101160.59
2022-10-16T02:23:30.796Z,101161.70
2022-10-16T02:24:33.571Z,101162.23
2022-10-16T02:25:38.679Z,101162.14
2022-10-16T02:26:44.440Z,101161.06
2022-10-16T02:28:00.464Z,101162.22
2022-10-16T02:29:06.694Z,101162.73
2022-10-16T02:30:15.386Z,101163.41
2022-10-16T02:32:47.653Z,101167.71
2022-10-16T02:33:52.067Z,101164.28
2022-10-16T02:34:55.631Z,101161.52
2022-10-16T02:35:58.782Z,101161.59
2022-10-16T02:37:02.988Z,101159.31
2022-10-16T02:38:07.249Z,101159.29
2022-10-16T02:39:10.641Z,101156.05
2022-10-16T02:40:13.608Z,101154.58
2022-10-16T02:41:16.531Z,101150.84
2022-10-16T02:42:19.767Z,101154.68
2022-10-16T02:43:22.776Z,101153.96
2022-10-16T02:44:26.164Z,101152.48
2022-10-16T02:45:30.192Z,101152.91
2022-10-16T02:46:33.296Z,101153.85
2022-10-16T02:47:36.179Z,101157.71
2022-10-16T02:48:40.415Z,101158.50
2022-10-16T02:49:43.398Z,101158.81
2022-10-16T02:50:46.456Z,101160.72
2022-10-16T02:51:49.299Z,101161.19
2022-10-16T02:52:52.206Z,101160.73
2022-10-16T02:53:55.030Z,101156.44
2022-10-16T02:54:57.952Z,101153.93
2022-10-16T02:56:00.881Z,101157.39
2022-10-16T02:57:03.799Z,101156.40
2022-10-16T02:58:07.319Z,101155.49
2022-10-16T02:59:10.385Z,101160.06
2022-10-16T03:00:14.741Z,101160.88
2022-10-16T03:01:18.029Z,101158.83
2022-10-16T03:02:22.011Z,101157.49
2022-10-16T03:03:25.383Z,101158.34
2022-10-16T03:04:28.327Z,101157.17
2022-10-16T03:05:31.464Z,101154.83
2022-10-16T03:06:34.282Z,101157.96
2022-10-16T03:07:37.124Z,101157.06
2022-10-16T03:08:40.199Z,101155.67
2022-10-16T03:09:43.631Z,101154.00
2022-10-16T03:10:46.732Z,101153.48
2022-10-16T03:11:49.787Z,101153.33
2022-10-16T03:12:52.671Z,101155.81
2022-10-16T03:13:55.599Z,101153.16
2022-10-16T03:14:59.061Z,101151.20
2022-10-16T03:16:02.655Z,101151.38
2022-10-16T03:17:05.578Z,101146.85
2022-10-16T03:18:14.160Z,101149.67
2022-10-16T03:19:18.051Z,101149.25
2022-10-16T03:20:21.339Z,101150.42
2022-10-16T03:21:24.924Z,101150.34
2022-10-16T03:22:27.759Z,101153.69
2022-10-16T03:24:39.254Z,101146.67
2022-10-16T03:25:49.522Z,101150.16
2022-10-16T03:26:54.635Z,101150.59
2022-10-16T03:27:57.515Z,101151.97
2022-10-16T03:29:00.569Z,101151.73
2022-10-16T03:30:03.844Z,101156.16
2022-10-16T03:31:06.929Z,101152.52
2022-10-16T03:32:10.034Z,101150.34
2022-10-16T03:33:12.868Z,101156.14
2022-10-16T03:34:15.831Z,101160.95
2022-10-16T03:35:18.825Z,101159.25
2022-10-16T03:36:22.125Z,101162.04
2022-10-16T03:37:25.851Z,101155.24
2022-10-16T03:38:28.984Z,101148.98
2022-10-16T03:39:31.807Z,101141.67
2022-10-16T03:40:34.690Z,101141.80
2022-10-16T03:41:37.739Z,101137.40
2022-10-16T03:42:40.750Z,101138.12
2022-10-16T03:43:43.582Z,101141.48
2022-10-16T03:44:46.646Z,101143.48
2022-10-16T03:45:51.165Z,101147.25
2022-10-16T03:46:54.143Z,101149.39
2022-10-16T03:47:57.989Z,101145.94
2022-10-16T03:49:01.720Z,101145.41
2022-10-16T03:50:06.135Z,101146.02
2022-10-16T03:51:09.028Z,101149.27
2022-10-16T03:52:12.095Z,101143.88
2022-10-16T03:53:15.540Z,101143.69
2022-10-16T03:54:18.568Z,101145.20
2022-10-16T03:55:21.529Z,101145.04
2022-10-16T03:56:24.516Z,101147.09
2022-10-16T03:57:28.275Z,101149.99
2022-10-16T03:58:31.743Z,101149.14
2022-10-16T03:59:34.572Z,101147.52
2022-10-16T04:00:40.811Z,101151.65
2022-10-16T04:01:43.883Z,101158.19
2022-10-16T04:03:55.022Z,101154.48
2022-10-16T04:04:57.974Z,101152.21
2022-10-16T04:06:02.216Z,101151.61
2022-10-16T04:07:05.182Z,101144.31
2022-10-16T04:08:08.313Z,101141.30
2022-10-16T04:09:11.536Z,101141.40
2022-10-16T04:10:14.993Z,101146.49
2022-10-16T04:11:17.939Z,101154.90
2022-10-16T04:12:20.935Z,101161.87
2022-10-16T04:13:23.911Z,101156.34
2022-10-16T04:14:27.844Z,101158.45
2022-10-16T04:15:31.196Z,101160.05
2022-10-16T04:16:34.060Z,101159.13
2022-10-16T04:17:36.983Z,101159.32
2022-10-16T04:18:40.035Z,101160.81
2022-10-16T04:19:43.236Z,101166.02
2022-10-16T04:20:46.138Z,101164.55
2022-10-16T04:21:48.988Z,101167.29
2022-10-16T04:22:51.837Z,101166.60
2022-10-16T04:23:54.830Z,101174.01
2022-10-16T04:24:57.989Z,101174.25
2022-10-16T04:26:01.482Z,101173.88
2022-10-16T04:27:04.454Z,101172.82
2022-10-16T04:28:07.536Z,101172.19
2022-10-16T04:29:10.526Z,101172.27
2022-10-16T04:30:16.670Z,101175.75
2022-10-16T04:31:19.512Z,101176.99
2022-10-16T04:32:22.433Z,101172.03
2022-10-16T04:33:25.324Z,101175.22
2022-10-16T04:34:28.272Z,101171.35
2022-10-16T04:35:31.950Z,101165.04
2022-10-16T04:36:34.860Z,101162.32
2022-10-16T04:37:37.934Z,101159.70
2022-10-16T04:38:40.967Z,101161.40
2022-10-16T04:39:44.747Z,101172.85
2022-10-16T04:40:47.625Z,101176.80
2022-10-16T04:41:50.513Z,101174.22
2022-10-16T04:42:53.704Z,101173.55
2022-10-16T04:43:56.617Z,101172.44
2022-10-16T04:44:59.735Z,101172.02
2022-10-16T04:46:05.650Z,101175.70
2022-10-16T04:47:09.290Z,101175.98
2022-10-16T04:48:12.310Z,101175.12
2022-10-16T04:49:15.371Z,101175.77
2022-10-16T04:50:18.328Z,101174.80
2022-10-16T04:51:35.310Z,101170.48
2022-10-16T04:52:38.254Z,101171.77
2022-10-16T04:53:41.100Z,101175.51
2022-10-16T04:54:46.102Z,101177.02
2022-10-16T04:55:49.301Z,101177.92
2022-10-16T04:56:53.015Z,101175.40
2022-10-16T04:57:55.893Z,101176.98
2022-10-16T04:58:58.725Z,101174.08
2022-10-16T05:00:01.958Z,101176.64
2022-10-16T05:01:05.130Z,101177.28
2022-10-16T05:02:08.162Z,101174.55
2022-10-16T05:03:11.100Z,101172.83
2022-10-16T05:04:16.009Z,101167.58
2022-10-16T05:05:20.514Z,101160.55
2022-10-16T05:06:23.448Z,101162.36
2022-10-16T05:07:26.731Z,101164.42
2022-10-16T05:08:30.503Z,101172.05
2022-10-16T05:09:33.367Z,101175.00
2022-10-16T05:10:36.337Z,101178.42
2022-10-16T05:11:39.403Z,101181.37
2022-10-16T05:12:42.335Z,101180.26
2022-10-16T05:13:45.351Z,101178.19
2022-10-16T05:14:48.282Z,101177.52
2022-10-16T05:15:51.238Z,101173.88
2022-10-16T05:16:54.312Z,101171.77
2022-10-16T05:17:57.420Z,101176.14
2022-10-16T05:20:23.296Z,101176.56
2022-10-16T05:21:26.111Z,101177.80
2022-10-16T05:22:28.933Z,101179.42
2022-10-16T05:23:32.048Z,101174.89
2022-10-16T05:24:35.024Z,101181.21
2022-10-16T05:25:38.022Z,101178.34
2022-10-16T05:26:41.044Z,101182.99
2022-10-16T05:27:44.502Z,101184.11
2022-10-16T05:28:47.774Z,101180.48
2022-10-16T05:29:50.649Z,101180.38
2022-10-16T05:30:53.518Z,101183.70
2022-10-16T05:31:56.390Z,101189.88
2022-10-16T05:32:59.457Z,101194.30
2022-10-16T05:34:02.924Z,101196.31
2022-10-16T05:35:07.609Z,101196.13
2022-10-16T05:36:13.922Z,101195.34
2022-10-16T05:37:16.876Z,101196.57
2022-10-16T05:38:19.961Z,101191.77
2022-10-16T05:39:22.902Z,101193.15
2022-10-16T05:40:25.685Z,101190.67
2022-10-16T05:41:28.595Z,101190.02
2022-10-16T05:42:31.615Z,101191.98
2022-10-16T05:43:34.504Z,101184.50
2022-10-16T05:44:37.469Z,101186.03
2022-10-16T05:45:40.355Z,101184.07
2022-10-16T05:46:43.357Z,101186.38
2022-10-16T05:47:47.357Z,101186.50
2022-10-16T05:48:52.932Z,101188.34
2022-10-16T05:49:56.500Z,101191.55
2022-10-16T05:51:06.412Z,101191.84
2022-10-16T05:52:09.254Z,101200.42
2022-10-16T05:53:13.214Z,101202.02
2022-10-16T05:54:16.296Z,101200.48
2022-10-16T05:55:19.409Z,101205.48
2022-10-16T05:56:22.354Z,101208.45
2022-10-16T05:57:25.938Z,101206.86
2022-10-16T05:58:30.062Z,101202.20
2022-10-16T05:59:33.312Z,101205.32
2022-10-16T06:00:36.199Z,101212.85
2022-10-16T06:01:39.152Z,101210.59
2022-10-16T06:02:42.091Z,101208.19
2022-10-16T06:03:45.387Z,101211.13
2022-10-16T06:04:48.335Z,101213.20
2022-10-16T06:05:51.491Z,101212.31
2022-10-16T06:07:01.305Z,101213.39
2022-10-16T06:08:04.482Z,101216.34
2022-10-16T06:09:07.562Z,101220.75
2022-10-16T06:10:10.461Z,101224.45
2022-10-16T06:11:15.168Z,101225.82
2022-10-16T06:12:18.100Z,101223.95
2022-10-16T06:13:20.932Z,101225.42
2022-10-16T06:14:23.958Z,101230.15
2022-10-16T06:15:26.893Z,101231.88
2022-10-16T06:16:30.518Z,101240.73
2022-10-16T06:17:35.504Z,101242.77
2022-10-16T06:18:38.405Z,101244.09
2022-10-16T06:19:41.381Z,101244.98
2022-10-16T06:20:45.573Z,101252.20
2022-10-16T06:21:49.030Z,101251.13
2022-10-16T06:22:51.834Z,101253.57
2022-10-16T06:23:55.713Z,101256.54
2022-10-16T06:24:58.491Z,101258.90
2022-10-16T06:26:11.794Z,101260.22
2022-10-16T06:27:14.701Z,101260.66
2022-10-16T06:28:21.992Z,101263.38
2022-10-16T06:29:25.031Z,101268.22
2022-10-16T06:30:28.209Z,101278.98
2022-10-16T06:31:34.369Z,101278.27
2022-10-16T06:32:37.739Z,101281.58
2022-10-16T06:33:40.614Z,101281.21
2022-10-16T06:34:44.228Z,101282.65
2022-10-16T06:35:47.411Z,101280.36
2022-10-16T06:36:50.405Z,101282.95
2022-10-16T06:37:56.523Z,101284.41
2022-10-16T06:38:59.611Z,101281.99
2022-10-16T06:40:05.251Z,101275.52
2022-10-16T06:41:08.842Z,101272.36
2022-10-16T06:42:11.674Z,101272.90
2022-10-16T06:43:14.590Z,101275.89
2022-10-16T06:44:17.425Z,101272.48
2022-10-16T06:45:20.356Z,101276.73
2022-10-16T06:46:24.693Z,101275.85
2022-10-16T06:47:28.150Z,101277.69
2022-10-16T06:48:31.563Z,101276.48
2022-10-16T06:49:34.394Z,101276.41
2022-10-16T06:50:37.279Z,101278.08
2022-10-16T06:51:43.345Z,101280.59
2022-10-16T06:52:46.848Z,101278.54
2022-10-16T06:54:06.383Z,101281.45
2022-10-16T06:55:09.834Z,101279.21
2022-10-16T06:56:14.211Z,101278.98
2022-10-16T06:57:17.852Z,101281.55
2022-10-16T06:58:21.117Z,101280.69
2022-10-16T06:59:24.146Z,101278.34
2022-10-16T07:00:29.914Z,101279.02
2022-10-16T07:01:33.338Z,101279.04
2022-10-16T07:02:36.196Z,101278.89
2022-10-16T07:03:40.080Z,101278.12
2022-10-16T07:04:43.233Z,101276.00
2022-10-16T07:05:46.073Z,101281.83
2022-10-16T07:06:48.969Z,101281.55
2022-10-16T07:07:52.146Z,101289.40
2022-10-16T07:08:55.331Z,101285.57
2022-10-16T07:09:58.458Z,101288.69
2022-10-16T07:11:02.160Z,101286.77
2022-10-16T07:12:05.245Z,101285.92
2022-10-16T07:13:08.676Z,101280.03
2022-10-16T07:14:17.109Z,101280.73
2022-10-16T07:15:20.236Z,101277.43
2022-10-16T07:16:31.103Z,101277.16
2022-10-16T07:17:34.119Z,101278.06
2022-10-16T07:18:37.919Z,101277.40
2022-10-16T07:19:40.921Z,101277.70
2022-10-16T07:20:44.078Z,101281.13
2022-10-16T07:21:47.091Z,101280.67
2022-10-16T07:22:50.902Z,101287.33
2022-10-16T07:23:54.660Z,101286.10
2022-10-16T07:24:57.679Z,101284.98
2022-10-16T07:26:00.903Z,101286.09
2022-10-16T07:27:03.917Z,101282.97
2022-10-16T07:28:07.961Z,101284.38
2022-10-16T07:29:15.212Z,101283.67
2022-10-16T07:30:18.139Z,101285.59
2022-10-16T07:31:21.560Z,101287.89
2022-10-16T07:32:26.831Z,101289.47
2022-10-16T07:33:30.197Z,101288.05
2022-10-16T07:34:33.259Z,101292.82
2022-10-16T07:35:36.117Z,101297.40
2022-10-16T07:36:39.193Z,101298.94
2022-10-16T07:37:45.355Z,101296.79
2022-10-16T07:38:48.803Z,101297.40
2022-10-16T07:39:51.771Z,101299.14
2022-10-16T07:41:01.744Z,101301.13
2022-10-16T07:42:04.839Z,101301.11
2022-10-16T07:43:08.292Z,101301.15
2022-10-16T07:44:11.133Z,101301.88
2022-10-16T07:45:14.341Z,101305.13
2022-10-16T07:46:17.763Z,101304.36
2022-10-16T07:47:21.730Z,101305.52
2022-10-16T07:48:25.380Z,101305.92
2022-10-16T07:49:28.251Z,101306.70
2022-10-16T07:50:31.151Z,101308.35
2022-10-16T07:51:34.281Z,101309.44
2022-10-16T07:52:37.509Z,101310.13
2022-10-16T07:53:40.365Z,101309.05
2022-10-16T07:54:43.298Z,101311.79
2022-10-16T07:55:46.311Z,101314.06
2022-10-16T07:56:49.243Z,101311.55
2022-10-16T07:57:52.267Z,101309.10
2022-10-16T07:58:55.330Z,101309.14
2022-10-16T07:59:58.271Z,101308.86
2022-10-16T08:01:04.377Z,101308.14
2022-10-16T08:02:08.455Z,101311.69
2022-10-16T08:03:11.398Z,101312.54
2022-10-16T08:04:14.219Z,101317.22
2022-10-16T08:05:17.115Z,101315.00
2022-10-16T08:06:25.016Z,101320.56
2022-10-16T08:07:30.865Z,101324.28
2022-10-16T08:08:34.132Z,101326.05
2022-10-16T08:09:37.006Z,101328.79
2022-10-16T08:10:39.883Z,101329.48
2022-10-16T08:11:42.864Z,101330.18
2022-10-16T08:12:45.817Z,101335.83
2022-10-16T08:13:48.902Z,101341.08
2022-10-16T08:14:51.853Z,101340.56
2022-10-16T08:15:54.869Z,101342.30
2022-10-16T08:16:57.764Z,101344.45
2022-10-16T08:18:04.206Z,101347.25
2022-10-16T08:19:09.385Z,101349.77
2022-10-16T08:20:12.464Z,101354.53
2022-10-16T08:21:20.501Z,101355.17
2022-10-16T08:22:24.620Z,101359.44
2022-10-16T08:23:28.308Z,101358.67
2022-10-16T08:24:32.281Z,101360.92
2022-10-16T08:25:35.649Z,101356.98
2022-10-16T08:26:38.590Z,101356.02
2022-10-16T08:27:41.482Z,101353.77
2022-10-16T08:28:44.453Z,101357.11
2022-10-16T08:29:47.584Z,101364.36
2022-10-16T08:30:50.503Z,101357.48
2022-10-16T08:31:53.304Z,101359.37
2022-10-16T08:32:56.178Z,101353.36
2022-10-16T08:33:58.999Z,101352.24
2022-10-16T08:35:01.991Z,101354.79
2022-10-16T08:36:06.000Z,101356.19
2022-10-16T08:37:12.190Z,101355.66
2022-10-16T08:38:15.171Z,101359.13
2022-10-16T08:39:18.051Z,101359.29
2022-10-16T08:41:53.732Z,101363.59
2022-10-16T08:42:56.533Z,101367.05
2022-10-16T08:44:17.909Z,101367.02
2022-10-16T08:45:27.215Z,101366.94
2022-10-16T08:46:33.474Z,101369.66
2022-10-16T08:47:54.821Z,101371.29
2022-10-16T08:49:00.048Z,101373.93
2022-10-16T08:50:09.011Z,101376.16
2022-10-16T08:51:14.834Z,101374.95
2022-10-16T08:52:17.936Z,101367.21
2022-10-16T08:53:32.362Z,101365.37
2022-10-16T08:54:35.915Z,101367.31
2022-10-16T08:55:42.545Z,101365.66
2022-10-16T08:56:45.564Z,101364.58
2022-10-16T08:57:48.441Z,101372.14
2022-10-16T08:58:55.125Z,101378.17
2022-10-16T09:00:16.109Z,101375.68
2022-10-16T09:01:40.920Z,101376.02
2022-10-16T09:02:53.318Z,101379.01
2022-10-16T09:03:56.257Z,101382.95
2022-10-16T09:05:05.423Z,101380.38
2022-10-16T09:06:20.682Z,101378.98
2022-10-16T09:07:36.068Z,101381.80
2022-10-16T09:08:50.990Z,101380.27
2022-10-16T09:10:04.558Z,101382.75
2022-10-16T09:11:08.631Z,101377.44
2022-10-16T09:12:20.551Z,101380.76
2022-10-16T09:13:31.072Z,101384.42
2022-10-16T09:14:37.349Z,101383.45
2022-10-16T09:15:40.320Z,101379.40
2022-10-16T09:16:49.971Z,101375.55
2022-10-16T09:17:58.864Z,101371.43
2022-10-16T09:19:01.716Z,101369.38
2022-10-16T09:20:19.397Z,101366.54
2022-10-16T09:21:28.141Z,101377.59
2022-10-16T09:22:32.568Z,101370.04
2022-10-16T09:23:36.474Z,101372.16
2022-10-16T09:24:39.447Z,101373.02
2022-10-16T09:25:44.506Z,101374.38
2022-10-16T09:26:48.161Z,101386.17
2022-10-16T09:27:53.551Z,101384.23
2022-10-16T09:28:56.585Z,101393.65
2022-10-16T09:30:00.275Z,101394.09
2022-10-16T09:31:03.261Z,101395.71
2022-10-16T09:32:18.512Z,101392.11
2022-10-16T09:33:31.114Z,101395.23
2022-10-16T09:34:39.352Z,101394.45
2022-10-16T09:35:42.272Z,101395.39
2022-10-16T09:36:46.183Z,101393.96
2022-10-16T09:37:51.427Z,101392.30
2022-10-16T09:39:07.810Z,101390.54
2022-10-16T09:40:35.344Z,101395.40
2022-10-16T09:41:39.606Z,101389.38
2022-10-16T09:42:42.829Z,101387.66
2022-10-16T09:43:51.132Z,101394.73
2022-10-16T09:44:54.666Z,101400.30
2022-10-16T09:46:00.092Z,101403.84
2022-10-16T09:47:12.435Z,101408.09
2022-10-16T09:48:20.483Z,101409.38
2022-10-16T09:49:25.234Z,101413.27
2022-10-16T09:50:28.978Z,101411.19
2022-10-16T09:51:33.659Z,101416.08
2022-10-16T09:52:36.712Z,101413.21
2022-10-16T09:53:41.747Z,101414.67
2022-10-16T09:54:55.410Z,101407.57
2022-10-16T09:55:58.832Z,101412.02
2022-10-16T09:57:08.543Z,101412.67
2022-10-16T09:58:15.006Z,101411.05
2022-10-16T09:59:22.052Z,101412.52
2022-10-16T10:00:25.576Z,101411.59
2022-10-16T10:01:39.322Z,101412.08
2022-10-16T10:02:42.383Z,101413.34
2022-10-16T10:03:45.871Z,101410.73
2022-10-16T10:04:50.999Z,101414.27
2022-10-16T10:05:56.266Z,101415.29
2022-10-16T10:07:02.979Z,101417.93
2022-10-16T10:08:07.322Z,101417.29
2022-10-16T10:09:24.503Z,101420.65
2022-10-16T10:10:31.640Z,101417.56
2022-10-16T10:11:38.580Z,101421.02
2022-10-16T10:12:41.971Z,101416.38
2022-10-16T10:13:44.818Z,101416.42
2022-10-16T10:14:52.418Z,101425.25
2022-10-16T10:15:55.245Z,101428.21
2022-10-16T10:17:07.578Z,101428.23
2022-10-16T10:18:18.060Z,101429.04
2022-10-16T10:19:22.633Z,101435.35
2022-10-16T10:20:25.536Z,101436.45
2022-10-16T10:21:28.496Z,101437.55
2022-10-16T10:22:31.759Z,101437.06
2022-10-16T10:23:34.556Z,101442.84
2022-10-16T10:24:38.947Z,101438.96
2022-10-16T10:25:50.243Z,101440.77
2022-10-16T10:27:01.799Z,101439.61
2022-10-16T10:28:23.284Z,101441.16
2022-10-16T10:29:38.179Z,101441.93
2022-10-16T10:30:41.039Z,101443.71
2022-10-16T10:32:02.556Z,101442.40
2022-10-16T10:33:17.704Z,101445.70
2022-10-16T10:34:26.593Z,101449.48
2022-10-16T10:35:41.551Z,101449.27
2022-10-16T10:36:50.665Z,101455.13
2022-10-16T10:37:59.632Z,101453.69
2022-10-16T10:39:09.284Z,101453.71
2022-10-16T10:40:30.773Z,101452.10
2022-10-16T10:41:45.847Z,101453.14
2022-10-16T10:42:51.742Z,101455.55
2022-10-16T10:44:00.282Z,101458.17
2022-10-16T10:45:05.866Z,101454.76
2022-10-16T10:46:15.194Z,101455.67
2022-10-16T10:47:21.076Z,101455.23
2022-10-16T10:48:26.617Z,101453.11
2022-10-16T10:49:49.033Z,101451.97
2022-10-16T10:50:59.709Z,101451.05
2022-10-16T10:52:11.930Z,101446.50
2022-10-16T10:53:14.683Z,101441.41
2022-10-16T10:54:20.336Z,101440.89
2022-10-16T10:55:32.667Z,101445.23
2022-10-16T10:56:54.311Z,101445.66
2022-10-16T10:58:09.665Z,101447.14
2022-10-16T10:59:31.091Z,101449.41
2022-10-16T11:00:46.014Z,101449.71
2022-10-16T11:01:57.167Z,101452.02
2022-10-16T11:03:12.187Z,101450.95
2022-10-16T11:04:53.545Z,101449.91
2022-10-16T11:06:08.825Z,101449.11
2022-10-16T11:07:18.267Z,101449.83
2022-10-16T11:08:29.183Z,101446.30
2022-10-16T11:09:35.714Z,101450.59
2022-10-16T11:10:46.480Z,101453.83
2022-10-16T11:11:53.680Z,101450.48
2022-10-16T11:13:00.874Z,101449.26
2022-10-16T11:14:06.758Z,101447.45
2022-10-16T11:15:15.339Z,101444.29
2022-10-16T11:16:24.817Z,101443.20
2022-10-16T11:17:40.630Z,101440.92
2022-10-16T11:19:02.189Z,101441.91
2022-10-16T11:20:23.924Z,101439.27
2022-10-16T11:21:31.180Z,101439.35
2022-10-16T11:22:34.235Z,101436.30
2022-10-16T11:23:37.024Z,101435.73
2022-10-16T11:24:42.924Z,101437.59
2022-10-16T11:25:47.287Z,101436.11
2022-10-16T11:26:51.430Z,101437.66
2022-10-16T11:27:54.221Z,101437.46
2022-10-16T11:28:57.736Z,101441.16
2022-10-16T11:30:02.432Z,101437.96
2022-10-16T11:31:25.807Z,101443.69
2022-10-16T11:32:35.487Z,101442.84
2022-10-16T11:33:44.011Z,101444.45
2022-10-16T11:34:51.107Z,101444.76
2022-10-16T11:36:12.723Z,101440.55
2022-10-16T11:37:18.553Z,101435.75
2022-10-16T11:38:21.383Z,101437.75
2022-10-16T11:39:28.539Z,101440.63
2022-10-16T11:40:36.713Z,101441.81
2022-10-16T11:41:48.682Z,101442.56
2022-10-16T11:43:07.133Z,101441.31
2022-10-16T11:44:28.745Z,101444.79
2022-10-16T11:45:38.898Z,101448.73
2022-10-16T11:46:58.910Z,101452.13
2022-10-16T11:48:07.291Z,101450.17
2022-10-16T11:49:19.775Z,101447.95
2022-10-16T11:50:44.872Z,101446.48
2022-10-16T11:51:53.815Z,101450.35
2022-10-16T11:53:02.098Z,101450.33
2022-10-16T11:54:08.139Z,101452.09
2022-10-16T11:55:27.038Z,101445.80
2022-10-16T11:56:32.051Z,101442.16
2022-10-16T11:57:39.967Z,101445.05
2022-10-16T11:58:49.346Z,101444.63
2022-10-16T12:00:12.586Z,101446.67
2022-10-16T12:01:34.095Z,101445.71
2022-10-16T12:02:41.674Z,101446.80
2022-10-16T12:03:56.662Z,101448.37
2022-10-16T12:05:07.064Z,101450.26
2022-10-16T12:06:32.456Z,101452.27
2022-10-16T12:07:38.177Z,101448.63
2022-10-16T12:08:41.326Z,101447.81
2022-10-16T12:09:44.246Z,101454.36
2022-10-16T12:10:48.384Z,101457.29
2022-10-16T12:11:51.199Z,101459.48
2022-10-16T12:12:54.534Z,101458.73
2022-10-16T12:14:06.172Z,101460.02
2022-10-16T12:15:47.033Z,101462.61
2022-10-16T12:17:06.435Z,101460.63
2022-10-16T12:18:21.739Z,101461.94
2022-10-16T12:19:26.257Z,101463.65
2022-10-16T12:20:34.003Z,101465.33
2022-10-16T12:21:37.090Z,101464.84
2022-10-16T12:22:55.682Z,101466.10
2022-10-16T12:23:59.717Z,101468.84
2022-10-16T12:25:02.486Z,101463.61
2022-10-16T12:26:06.389Z,101465.00
2022-10-16T12:27:25.387Z,101461.80
2022-10-16T12:28:29.991Z,101464.41
2022-10-16T12:29:35.884Z,101463.12
2022-10-16T12:30:38.918Z,101466.98
2022-10-16T12:31:54.591Z,101466.80
2022-10-16T12:33:02.739Z,101470.02
2022-10-16T12:34:05.753Z,101469.91
2022-10-16T12:35:38.079Z,101469.58
2022-10-16T12:36:41.010Z,101468.08
2022-10-16T12:37:45.118Z,101468.57
2022-10-16T12:38:49.091Z,101465.11
2022-10-16T12:39:53.347Z,101471.01
2022-10-16T12:40:59.222Z,101474.80
2022-10-16T12:42:06.584Z,101473.27
2022-10-16T12:43:13.449Z,101470.92